Time;durP1;ratioP1;P1;durP2;ratioP2;P2;SDS_P1;SDS_P2;PMS_P1;PMS_P2;Temp;Humidity;BMP_temperature;BMP_pressure;BME280_temperature;BME280_humidity;BME280_pressure;Samples;Min_cycle;Max_cycle;Signal;HPM_P1;HPM_P2
2022/08/26 00:00:56;;;;;;;16.83;11.43;;;21.20;99.90;;;-141.84;75.06;20679.72;5012944;28;20225;-62
2022/08/26 00:03:25;;;;;;;26.92;12.60;;;21.10;99.90;;;-141.84;75.05;20610.59;5012417;28;20753;-64
2022/08/26 00:05:54;;;;;;;16.88;12.65;;;21.10;99.90;;;-141.84;75.10;20618.72;5011447;28;20234;-63
2022/08/26 00:08:23;;;;;;;21.20;11.85;;;21.10;99.90;;;-141.84;75.38;20610.59;5012164;28;20257;-62
2022/08/26 00:10:52;;;;;;;17.95;11.90;;;21.10;99.90;;;-141.84;75.10;20635.00;5012675;28;20261;-62
2022/08/26 00:13:21;;;;;;;22.83;13.50;;;21.10;99.90;;;-141.84;75.20;20594.34;5012666;28;20199;-62
2022/08/26 00:15:50;;;;;;;19.58;13.18;;;21.10;99.90;;;-141.84;74.64;20635.00;5012185;28;20809;-62
2022/08/26 00:18:18;;;;;;;22.98;13.00;;;21.10;99.90;;;-141.84;74.76;20616.69;5011714;28;20320;-62
2022/08/26 00:20:51;;;;;;;23.05;13.05;;;21.10;99.90;;;-141.84;74.78;20610.59;5012144;28;20313;-63
2022/08/26 00:23:19;;;;;;;25.15;13.10;;;21.10;99.90;;;-141.84;74.48;20616.69;5011588;28;20732;-62
2022/08/26 00:25:53;;;;;;;22.20;13.18;;;21.10;99.90;;;-141.84;75.21;20549.63;5012378;28;20238;-63
2022/08/26 00:28:24;;;;;;;30.00;12.60;;;21.10;99.90;;;-141.84;74.80;20551.66;5012657;28;20198;-62
2022/08/26 00:30:53;;;;;;;22.20;13.75;;;21.10;99.90;;;-141.84;75.03;20539.47;5011989;28;20619;-62
2022/08/26 00:33:21;;;;;;;20.35;13.43;;;21.10;99.90;;;-141.84;74.86;20521.16;5011758;28;20235;-61
2022/08/26 00:35:50;;;;;;;24.02;13.50;;;21.00;99.90;;;-141.84;75.10;20506.94;5011881;28;20745;-62
2022/08/26 00:38:20;;;;;;;20.33;12.38;;;21.00;99.90;;;-141.84;75.35;20488.63;5011443;28;20651;-62
2022/08/26 00:40:54;;;;;;;24.88;13.27;;;21.00;99.90;;;-141.84;74.73;20476.44;5012175;28;20212;-61
2022/08/26 00:43:25;;;;;;;21.08;12.88;;;21.00;99.90;;;-141.84;75.09;20482.53;5012633;28;20186;-63
2022/08/26 00:46:00;;;;;;;17.63;12.60;;;21.00;99.90;;;-141.84;75.47;20395.13;5011673;28;20228;-62
2022/08/26 00:48:33;;;;;;;19.58;12.77;;;20.90;99.90;;;-141.84;76.09;20401.22;5011581;28;20226;-63
2022/08/26 00:51:08;;;;;;;21.00;13.52;;;20.90;99.90;;;-141.84;76.11;20358.56;5011910;28;20219;-62
2022/08/26 00:53:45;;;;;;;25.75;13.63;;;20.80;99.90;;;-141.84;76.26;20321.97;5011450;28;20230;-63
2022/08/26 00:56:28;;;;;;;21.98;13.45;;;20.80;99.90;;;-141.84;76.31;20336.19;5011605;28;20242;-64
2022/08/26 00:59:03;;;;;;;22.77;12.70;;;20.80;99.90;;;-141.84;76.00;20332.13;5011750;28;20228;-64
2022/08/26 01:01:32;;;;;;;29.52;13.80;;;20.80;99.90;;;-141.84;75.67;20338.22;5011778;28;20236;-63
2022/08/26 01:04:01;;;;;;;24.15;14.18;;;20.80;99.90;;;-141.84;76.27;20289.44;5051687;28;20224;-62
2022/08/26 01:06:30;;;;;;;20.38;14.15;;;20.80;99.90;;;-141.84;76.26;20281.31;5051070;28;20231;-62
2022/08/26 01:08:58;;;;;;;20.45;12.70;;;20.80;99.90;;;-141.84;76.67;20250.81;5050824;28;20290;-62
2022/08/26 01:11:28;;;;;;;27.45;14.38;;;20.80;99.90;;;-141.84;76.96;20271.16;5051096;28;20696;-62
2022/08/26 01:14:00;;;;;;;21.35;13.88;;;20.70;99.90;;;-141.84;76.42;20232.53;5050961;28;20308;-62
2022/08/26 01:16:31;;;;;;;21.30;12.95;;;20.70;99.90;;;-141.84;76.60;20244.72;5051436;28;20189;-62
2022/08/26 01:19:12;;;;;;;18.65;13.57;;;20.70;99.90;;;-141.84;76.67;20238.63;5051111;28;20707;-63
2022/08/26 01:21:49;;;;;;;24.42;14.68;;;20.70;99.90;;;-141.84;77.56;20204.06;5050747;28;20304;-63
2022/08/26 01:24:19;;;;;;;20.58;13.68;;;20.60;99.90;;;-141.84;77.32;20185.78;5050309;28;20820;-61
2022/08/26 01:26:48;;;;;;;23.95;14.88;;;20.60;99.90;;;-141.84;76.80;20200.00;5050923;28;20225;-63
2022/08/26 01:29:19;;;;;;;26.33;15.80;;;20.60;99.90;;;-141.84;76.85;20216.25;5050594;28;20223;-64
2022/08/26 01:31:57;;;;;;;22.98;15.27;;;20.60;99.90;;;-141.84;76.88;20204.06;5051302;28;20553;-62
2022/08/26 01:34:31;;;;;;;20.75;14.13;;;20.60;99.90;;;-141.84;77.37;20130.91;5051341;28;20182;-63
2022/08/26 01:37:08;;;;;;;21.95;14.95;;;20.60;99.90;;;-141.84;77.66;20145.13;5051046;28;20281;-63
2022/08/26 01:39:48;;;;;;;20.50;14.63;;;20.50;99.90;;;-141.84;77.21;20171.56;5050271;28;20229;-62
2022/08/26 01:42:20;;;;;;;23.63;14.95;;;20.50;99.90;;;-141.84;76.64;20130.91;5051120;28;20232;-62
2022/08/26 01:44:57;;;;;;;21.48;16.00;;;20.50;99.90;;;-141.84;76.60;20165.44;5050701;28;20895;-63
2022/08/26 01:47:30;;;;;;;23.08;15.55;;;20.60;99.90;;;-141.84;77.30;20130.91;5050636;28;20235;-61
2022/08/26 01:50:03;;;;;;;23.85;14.93;;;20.50;99.90;;;-141.84;77.45;20082.13;5050773;28;20225;-61
2022/08/26 01:52:35;;;;;;;22.95;14.50;;;20.50;99.90;;;-141.84;77.76;20084.16;5050537;28;20662;-62
2022/08/26 01:55:07;;;;;;;20.95;14.77;;;20.40;99.90;;;-141.84;77.97;20067.88;5051307;28;20225;-63
2022/08/26 01:57:37;;;;;;;19.30;14.52;;;20.40;99.90;;;-141.84;77.99;20055.69;5050717;28;20731;-60
2022/08/26 02:00:09;;;;;;;24.48;15.27;;;20.40;99.90;;;-141.84;77.30;20090.25;5050443;28;20805;-62
2022/08/26 02:02:37;;;;;;;21.17;15.18;;;20.40;99.90;;;-141.84;77.69;20080.09;5050569;28;20225;-62
2022/08/26 02:05:11;;;;;;;20.52;13.98;;;20.40;99.90;;;-141.84;77.99;20076.03;5050509;28;20606;-62
2022/08/26 02:07:41;;;;;;;20.05;14.85;;;20.40;99.90;;;-141.84;78.30;20067.88;5050356;28;20205;-62
2022/08/26 02:10:12;;;;;;;19.45;14.68;;;20.40;99.90;;;-141.84;78.58;20027.25;5050472;28;20531;-62
2022/08/26 02:12:42;;;;;;;17.75;14.35;;;20.30;99.90;;;-141.84;78.45;20013.00;5050185;28;20720;-63
2022/08/26 02:15:12;;;;;;;22.02;15.02;;;20.30;99.90;;;-141.84;78.83;20019.13;5050171;28;20225;-62
2022/08/26 02:17:46;;;;;;;20.95;15.05;;;20.30;99.90;;;-141.84;78.91;19978.47;5050541;28;20292;-62
2022/08/26 02:20:20;;;;;;;18.77;15.05;;;20.30;99.90;;;-141.84;78.71;20047.56;5050336;28;20252;-62
2022/08/26 02:22:48;;;;;;;21.17;15.30;;;20.30;99.90;;;-141.84;79.28;19972.38;5050363;28;20210;-63
2022/08/26 02:25:27;;;;;;;21.65;15.55;;;20.30;99.90;;;-141.84;79.04;19966.28;5050701;28;20292;-63
2022/08/26 02:27:56;;;;;;;23.83;15.63;;;20.40;99.90;;;-141.84;77.97;20004.88;5051184;28;20395;-62
2022/08/26 02:30:28;;;;;;;27.63;16.45;;;20.40;99.90;;;-141.84;78.04;20008.94;5053776;28;20447;-62
2022/08/26 02:32:59;;;;;;;23.30;14.70;;;20.40;99.90;;;-141.84;77.69;20004.88;5053979;28;20280;-62
2022/08/26 02:35:27;;;;;;;19.70;14.45;;;20.40;99.90;;;-141.84;77.88;20010.97;5053843;28;20225;-63
2022/08/26 02:37:59;;;;;;;18.70;14.05;;;20.40;99.90;;;-141.84;78.36;19947.97;5053926;28;20253;-62
2022/08/26 02:40:33;;;;;;;20.73;14.70;;;20.40;99.90;;;-141.84;78.59;19954.06;5054177;28;20182;-62
2022/08/26 02:43:03;;;;;;;21.83;16.35;;;20.40;99.90;;;-141.84;78.61;19947.97;5054001;28;20211;-62
2022/08/26 02:45:36;;;;;;;21.92;15.70;;;20.40;99.90;;;-141.84;78.54;19927.66;5053357;28;20313;-62
2022/08/26 02:48:12;;;;;;;18.92;15.02;;;20.40;99.90;;;-141.84;78.63;19943.91;5053513;28;20252;-61
2022/08/26 02:50:41;;;;;;;23.00;16.33;;;20.40;99.90;;;-141.84;76.93;20039.44;5053540;28;20307;-62
2022/08/26 02:53:12;;;;;;;20.50;15.35;;;20.40;99.90;;;-141.84;76.51;19998.78;5053444;28;20253;-62
2022/08/26 02:55:42;;;;;;;26.70;16.40;;;20.50;99.90;;;-141.84;77.24;19998.78;5053457;28;20193;-61
2022/08/26 02:58:11;;;;;;;20.83;15.25;;;20.50;99.90;;;-141.84;77.87;19947.97;5054105;28;20185;-62
2022/08/26 03:00:40;;;;;;;24.15;15.43;;;20.50;99.90;;;-141.84;77.47;19950.00;5053141;28;20312;-61
2022/08/26 03:03:21;;;;;;;22.40;17.05;;;20.50;99.90;;;-141.84;77.18;19996.75;5053306;28;20248;-63
2022/08/26 03:05:51;;;;;;;22.83;15.73;;;20.50;99.90;;;-141.84;77.72;19935.78;5053113;28;20316;-63
2022/08/26 03:08:21;;;;;;;22.67;16.33;;;20.40;99.90;;;-141.84;77.72;19960.16;5052785;28;20629;-62
2022/08/26 03:10:50;;;;;;;22.38;16.38;;;20.40;99.90;;;-141.84;77.47;19964.25;5053586;28;20304;-61
2022/08/26 03:13:18;;;;;;;25.10;16.98;;;20.40;99.90;;;-141.84;77.84;19889.03;5053587;28;20767;-63
2022/08/26 03:15:46;;;;;;;19.92;15.63;;;20.40;99.90;;;-141.84;78.31;19919.53;5052798;28;20316;-63
2022/08/26 03:18:15;;;;;;;26.73;16.17;;;20.40;99.90;;;-141.84;78.09;19911.41;5053099;28;20236;-62
2022/08/26 03:20:44;;;;;;;19.85;15.75;;;20.40;99.90;;;-141.84;78.40;19891.06;5052732;28;20304;-62
2022/08/26 03:23:12;;;;;;;24.92;16.73;;;20.30;99.90;;;-141.84;78.41;19921.56;5052923;28;20255;-62
2022/08/26 03:25:41;;;;;;;21.90;15.88;;;20.30;99.90;;;-141.84;77.88;19895.13;5052533;28;20248;-62
2022/08/26 03:28:10;;;;;;;20.70;16.15;;;20.30;99.90;;;-141.84;78.68;19858.56;5053571;28;20228;-61
2022/08/26 03:30:38;;;;;;;24.17;17.52;;;20.20;99.90;;;-141.84;78.22;19887.00;5052961;28;20597;-61
2022/08/26 03:33:14;;;;;;;20.77;16.10;;;20.20;99.90;;;-141.84;78.77;19874.81;5053028;28;20525;-63
2022/08/26 03:35:46;;;;;;;22.40;16.85;;;20.20;99.90;;;-141.84;79.07;19840.25;5052866;28;20339;-63
2022/08/26 03:38:15;;;;;;;21.00;16.90;;;20.20;99.90;;;-141.84;79.91;19799.63;5052655;28;20649;-62
2022/08/26 03:40:44;;;;;;;21.25;16.65;;;20.10;99.90;;;-141.84;80.24;19789.44;5052637;28;20206;-63
2022/08/26 03:43:16;;;;;;;19.90;17.75;;;20.10;99.90;;;-141.84;80.44;19763.03;5053301;28;20288;-62
2022/08/26 03:45:45;;;;;;;19.33;16.92;;;20.00;99.90;;;-141.84;80.43;19754.91;5052466;28;20747;-61
2022/08/26 03:48:14;;;;;;;23.55;18.30;;;20.00;99.90;;;-141.84;81.15;19744.75;5052732;28;20308;-62
2022/08/26 03:50:42;;;;;;;25.25;17.58;;;19.90;99.90;;;-141.84;81.04;19742.72;5052475;28;20248;-61
2022/08/26 03:53:10;;;;;;;21.13;16.83;;;19.90;99.90;;;-141.84;81.01;19704.09;5052597;28;20233;-62
2022/08/26 03:55:41;;;;;;;20.58;17.60;;;19.90;99.90;;;-141.84;81.44;19716.28;5052354;28;20197;-62
2022/08/26 03:58:10;;;;;;;22.92;18.15;;;19.90;99.90;;;-141.84;81.59;19693.94;5053202;28;20197;-62
2022/08/26 04:00:40;;;;;;;22.25;17.58;;;19.90;99.90;;;-141.84;81.59;19691.91;5052029;28;20771;-63
2022/08/26 04:03:10;;;;;;;23.55;19.25;;;19.80;99.90;;;-141.84;81.45;19712.22;5052079;28;20264;-63
2022/08/26 04:05:45;;;;;;;26.35;18.52;;;19.90;99.90;;;-141.84;81.17;19730.50;5051965;28;20221;-63
2022/08/26 04:08:13;;;;;;;24.45;18.88;;;19.90;99.90;;;-141.84;81.22;19702.06;5051755;28;20252;-63
2022/08/26 04:10:42;;;;;;;22.98;18.23;;;19.80;99.90;;;-141.84;81.43;19691.91;5051944;28;20209;-62
2022/08/26 04:13:11;;;;;;;24.70;19.13;;;19.80;99.90;;;-141.84;80.32;19720.34;5052605;28;20232;-62
2022/08/26 04:15:40;;;;;;;29.58;18.60;;;19.90;99.90;;;-141.84;80.99;19738.66;5051806;28;20275;-62
2022/08/26 04:18:09;;;;;;;27.00;19.35;;;19.90;99.90;;;-141.84;81.38;19691.91;5051833;28;20236;-62
2022/08/26 04:20:37;;;;;;;21.52;18.80;;;19.90;99.90;;;-141.84;81.64;19671.56;5051661;28;20298;-62
2022/08/26 04:23:06;;;;;;;25.55;18.88;;;19.80;99.90;;;-141.84;81.48;19681.75;5051690;28;20336;-63
2022/08/26 04:25:34;;;;;;;21.45;17.83;;;19.80;99.90;;;-141.84;81.71;19655.31;5051316;28;20301;-62
2022/08/26 04:28:03;;;;;;;21.70;18.30;;;19.80;99.90;;;-141.84;81.91;19649.22;5052658;28;20324;-62
2022/08/26 04:30:32;;;;;;;24.70;19.17;;;19.80;99.90;;;-141.84;81.45;19661.41;5051510;28;20803;-63
2022/08/26 04:33:03;;;;;;;28.08;18.77;;;19.90;99.90;;;-141.84;80.85;19695.97;5051607;28;20225;-62
2022/08/26 04:35:39;;;;;;;26.42;17.83;;;19.90;99.90;;;-141.84;81.79;19665.47;5051492;28;20235;-62
2022/08/26 04:38:11;;;;;;;23.02;18.27;;;19.90;99.90;;;-141.84;81.61;19673.59;5051334;28;20712;-63
2022/08/26 04:40:43;;;;;;;24.08;18.80;;;19.90;99.90;;;-141.84;81.61;19637.03;5051520;28;20207;-62
2022/08/26 04:43:14;;;;;;;23.83;17.20;;;19.90;99.90;;;-141.84;82.00;19616.72;5052278;28;20235;-62
2022/08/26 04:45:42;;;;;;;18.52;16.63;;;20.00;99.90;;;-141.84;82.05;19683.78;5051221;28;20316;-62
2022/08/26 04:48:12;;;;;;;23.20;18.13;;;20.00;99.90;;;-141.84;81.78;19635.00;5051038;28;20661;-62
2022/08/26 04:50:43;;;;;;;25.30;18.80;;;20.00;99.90;;;-141.84;81.00;19671.56;5050324;28;20233;-62
2022/08/26 04:53:16;;;;;;;22.83;18.65;;;20.10;99.90;;;-141.84;80.04;19693.94;5050614;28;20217;-63
2022/08/26 04:55:44;;;;;;;26.27;18.13;;;20.20;99.90;;;-141.84;79.48;19730.50;5050817;28;20343;-62
2022/08/26 04:58:15;;;;;;;24.25;18.70;;;20.30;99.90;;;-141.84;79.10;19724.41;5051612;28;20620;-62
2022/08/26 05:00:45;;;;;;;27.85;19.80;;;20.30;99.90;;;-141.84;78.31;19750.84;5050714;28;20229;-62
2022/08/26 05:03:16;;;;;;;23.33;18.35;;;20.40;99.90;;;-141.84;78.42;19756.94;5050822;28;20224;-62
2022/08/26 05:05:48;;;;;;;28.20;18.90;;;20.50;99.90;;;-141.84;78.08;19809.78;5050754;28;20710;-63
2022/08/26 05:08:19;;;;;;;25.70;19.50;;;20.50;99.90;;;-141.84;77.05;19840.25;5050405;28;20308;-63
2022/08/26 05:10:53;;;;;;;23.77;17.83;;;20.60;99.90;;;-141.84;77.25;19864.66;5050536;28;20524;-61
2022/08/26 05:13:25;;;;;;;22.95;17.23;;;20.70;99.90;;;-141.84;77.34;19834.16;5051284;28;20189;-62
2022/08/26 05:15:54;;;;;;;23.55;16.67;;;20.80;99.90;;;-141.84;77.27;19864.66;5050567;28;20308;-62
2022/08/26 05:18:30;;;;;;;24.85;18.95;;;20.80;99.90;;;-141.84;77.35;19870.75;5050731;28;20654;-61
2022/08/26 05:20:58;;;;;;;24.88;18.30;;;20.90;99.90;;;-141.84;75.80;19917.50;5050504;28;20232;-63
2022/08/26 05:23:26;;;;;;;21.35;17.85;;;21.00;99.90;;;-141.84;74.96;19927.66;5050368;28;20308;-62
2022/08/26 05:25:55;;;;;;;25.13;17.98;;;21.10;99.90;;;-141.84;75.21;19927.66;5050434;28;20239;-62
2022/08/26 05:28:29;;;;;;;25.88;18.67;;;21.10;99.90;;;-141.84;74.62;19980.50;5051077;28;20210;-62
2022/08/26 05:30:57;;;;;;;25.13;18.77;;;21.20;99.90;;;-141.84;74.29;19972.38;5050826;28;20221;-62
2022/08/26 05:33:25;;;;;;;20.60;17.17;;;21.20;99.90;;;-141.84;74.46;19984.56;5050605;28;20233;-61
2022/08/26 05:35:55;;;;;;;24.55;17.40;;;21.30;99.90;;;-141.84;74.09;20023.19;5050428;28;20227;-62
2022/08/26 05:38:23;;;;;;;20.67;16.98;;;21.40;99.90;;;-141.84;73.83;20061.78;5050230;28;20228;-62
2022/08/26 05:40:57;;;;;;;24.08;17.13;;;21.50;99.90;;;-141.84;73.46;20104.47;5050600;28;20316;-61
2022/08/26 05:43:26;;;;;;;21.52;16.73;;;21.60;99.90;;;-141.84;73.19;20104.47;5050993;28;20572;-62
2022/08/26 05:45:54;;;;;;;20.77;16.50;;;21.70;99.90;;;-141.84;72.78;20155.28;5050324;28;20221;-62
2022/08/26 05:48:23;;;;;;;21.67;16.33;;;21.90;99.90;;;-141.84;71.85;20200.00;5049989;28;20755;-63
2022/08/26 05:50:53;;;;;;;24.40;18.70;;;22.10;99.90;;;-141.84;69.86;20301.63;5050187;28;20243;-61
2022/08/26 05:53:23;;;;;;;18.42;16.55;;;22.20;99.90;;;-141.84;69.71;20336.19;5050034;28;20225;-61
2022/08/26 05:55:55;;;;;;;21.17;17.45;;;22.40;99.90;;;-141.84;69.39;20372.78;5050182;28;20232;-61
2022/08/26 05:58:23;;;;;;;24.30;18.10;;;22.60;99.90;;;-141.84;68.93;20413.44;5050668;28;20197;-62
2022/08/26 06:01:00;;;;;;;24.83;16.95;;;22.70;99.90;;;-141.84;68.92;20429.69;5050198;28;20580;-62
2022/08/26 06:03:30;;;;;;;25.35;17.42;;;22.80;99.90;;;-141.84;68.59;20437.81;5051555;28;20445;-63
2022/08/26 06:05:59;;;;;;;25.33;18.45;;;22.80;99.90;;;-141.84;68.81;20464.25;5054068;28;20229;-62
2022/08/26 06:08:28;;;;;;;22.90;17.00;;;22.80;99.90;;;-141.84;68.37;20474.41;5053572;28;20310;-61
2022/08/26 06:11:01;;;;;;;22.25;17.27;;;22.90;99.90;;;-141.84;67.97;20529.28;5053837;28;20295;-61
2022/08/26 06:13:30;;;;;;;26.38;19.30;;;23.00;99.90;;;-141.84;67.65;20525.22;5054182;28;20639;-63
2022/08/26 06:16:03;;;;;;;25.02;17.10;;;23.00;99.90;;;-141.84;67.46;20574.00;5053847;28;20297;-63
2022/08/26 06:18:35;;;;;;;26.38;18.65;;;23.10;99.90;;;-141.84;66.72;20637.03;5053525;28;20304;-63
2022/08/26 06:21:14;;;;;;;23.40;16.58;;;23.20;99.90;;;-141.84;66.83;20608.56;5053541;28;20615;-63
2022/08/26 06:26:50;;;;;;;21.70;18.77;;;23.20;99.90;;;-141.84;66.63;20618.72;4991887;28;20245;-62
2022/08/26 06:29:21;;;;;;;25.58;18.88;;;23.20;99.90;;;-141.84;66.37;20667.53;4991492;28;20235;-61
2022/08/26 06:31:52;;;;;;;23.15;17.95;;;23.30;99.90;;;-141.84;66.88;20671.59;5023443;28;20229;-62
2022/08/26 06:34:20;;;;;;;18.90;16.40;;;23.20;99.90;;;-141.84;66.87;20673.63;5053842;28;20208;-63
2022/08/26 06:36:49;;;;;;;26.08;18.63;;;23.30;99.90;;;-141.84;66.37;20693.94;5053315;28;20248;-66
2022/08/26 06:39:21;;;;;;;22.83;17.70;;;23.30;99.90;;;-141.84;66.59;20671.59;5052997;28;20229;-62
2022/08/26 06:41:50;;;;;;;24.05;17.40;;;23.30;99.90;;;-141.84;66.94;20651.25;5053399;28;20253;-63
2022/08/26 06:44:19;;;;;;;30.58;19.73;;;23.20;99.90;;;-141.84;66.78;20641.09;5053315;28;20231;-63
2022/08/26 06:46:48;;;;;;;29.33;18.83;;;23.20;99.90;;;-141.84;66.20;20700.03;5053079;28;20696;-62
2022/08/26 06:49:17;;;;;;;30.85;19.17;;;23.30;99.90;;;-141.84;67.63;20610.59;5053327;28;20765;-62
2022/08/26 06:51:56;;;;;;;21.48;16.33;;;23.10;99.90;;;-141.84;68.10;20582.16;5053176;28;20221;-64
2022/08/26 06:54:29;;;;;;;20.33;16.42;;;23.00;99.90;;;-141.84;68.78;20529.28;5052801;28;20308;-60
2022/08/26 06:56:57;;;;;;;24.80;19.17;;;22.90;99.90;;;-141.84;68.92;20582.16;5052908;28;20315;-61
2022/08/26 06:59:26;;;;;;;18.40;15.25;;;22.90;99.90;;;-141.84;68.88;20525.22;5053078;28;20298;-62
2022/08/26 07:01:54;;;;;;;25.38;19.50;;;22.90;99.90;;;-141.84;68.99;20504.91;5052806;28;20696;-63
2022/08/26 07:04:23;;;;;;;24.83;17.75;;;22.90;99.90;;;-141.84;69.06;20539.47;5053451;28;20205;-61
2022/08/26 07:06:55;;;;;;;21.08;17.48;;;22.90;99.90;;;-141.84;69.11;20555.72;5052840;28;20225;-63
2022/08/26 07:09:31;;;;;;;24.80;17.70;;;23.00;99.90;;;-141.84;68.29;20561.81;5052334;28;20236;-63
2022/08/26 07:12:00;;;;;;;21.13;16.13;;;23.10;99.90;;;-141.84;67.82;20639.06;5052814;28;20231;-61
2022/08/26 07:14:30;;;;;;;23.60;17.48;;;23.20;99.90;;;-141.84;66.85;20720.38;5052423;28;20224;-61
2022/08/26 07:17:00;;;;;;;22.92;17.88;;;23.40;99.90;;;-141.84;65.84;20765.09;5052844;28;20231;-61
2022/08/26 07:19:28;;;;;;;24.50;17.73;;;23.50;99.90;;;-141.84;65.74;20805.75;5053259;28;20391;-62
2022/08/26 07:22:00;;;;;;;31.35;19.75;;;23.70;99.90;;;-141.84;65.38;20838.28;5053106;28;20716;-60
2022/08/26 07:24:30;;;;;;;24.17;18.02;;;23.80;99.90;;;-141.84;65.25;20838.28;5051887;28;20252;-61
2022/08/26 07:27:01;;;;;;;27.65;18.58;;;23.70;99.90;;;-141.84;65.12;20862.69;5052659;28;20669;-62
2022/08/26 07:29:33;;;;;;;23.05;17.20;;;23.80;99.90;;;-141.84;65.39;20899.28;5052105;28;20572;-62
2022/08/26 07:32:02;;;;;;;23.40;17.83;;;23.80;99.90;;;-141.84;64.23;20966.34;5052552;28;20304;-62
2022/08/26 07:34:31;;;;;;;22.85;16.67;;;24.00;99.90;;;-141.84;65.02;20923.66;5051928;28;20228;-62
2022/08/26 07:37:01;;;;;;;23.88;17.90;;;24.00;99.90;;;-141.84;65.01;20883.00;5051968;28;20208;-62
2022/08/26 07:39:32;;;;;;;19.95;15.95;;;24.00;99.90;;;-141.84;64.88;20956.19;5050804;28;20332;-62
2022/08/26 07:42:05;;;;;;;25.45;18.23;;;24.20;99.90;;;-141.84;64.29;20972.47;5051879;28;20249;-61
2022/08/26 07:44:36;;;;;;;24.38;17.52;;;24.30;99.90;;;-141.84;63.89;21031.41;5050659;28;20228;-62
2022/08/26 07:47:05;;;;;;;25.73;18.52;;;24.30;99.90;;;-141.84;62.71;21096.47;5052666;28;20232;-61
2022/08/26 07:49:53;;;;;;;25.83;17.50;;;24.50;99.90;;;-141.84;63.19;21090.38;5051850;28;20732;-61
2022/08/26 07:52:21;;;;;;;26.40;16.98;;;24.40;99.90;;;-141.84;63.53;21076.13;5052725;28;20241;-61
2022/08/26 07:54:56;;;;;;;21.45;17.15;;;24.40;99.90;;;-141.84;63.43;21106.63;5051705;28;20288;-61
2022/08/26 07:57:25;;;;;;;23.17;17.00;;;24.40;99.90;;;-141.84;63.19;21100.53;5052013;28;20233;-62
2022/08/26 07:59:54;;;;;;;21.27;17.10;;;24.50;99.90;;;-141.84;63.37;21122.91;5051942;28;20226;-62
2022/08/26 08:02:25;;;;;;;21.30;16.52;;;24.50;99.90;;;-141.84;63.00;21196.09;5052007;28;20286;-63
2022/08/26 08:04:55;;;;;;;23.25;16.05;;;24.60;99.90;;;-141.84;63.22;21129.00;5051975;28;20227;-63
2022/08/26 08:07:24;;;;;;;23.48;17.80;;;24.70;99.90;;;-141.84;62.29;21185.91;5052479;28;20189;-61
2022/08/26 08:10:19;;;;;;;25.17;16.70;;;24.80;99.90;;;-141.84;62.56;21190.00;5051793;28;20242;-62
2022/08/26 08:12:49;;;;;;;22.63;16.85;;;24.80;99.90;;;-141.84;62.80;21222.53;5051724;28;20225;-63
2022/08/26 08:15:22;;;;;;;22.83;15.38;;;24.90;99.90;;;-141.84;62.37;21271.31;5051543;28;20225;-61
2022/08/26 08:17:51;;;;;;;25.10;16.80;;;25.00;99.90;;;-141.84;62.02;21279.44;5051552;28;20311;-62
2022/08/26 08:20:21;;;;;;;20.35;15.75;;;25.10;99.90;;;-141.84;62.01;21328.25;5051297;28;20319;-63
2022/08/26 08:22:52;;;;;;;22.80;16.58;;;25.30;99.90;;;-141.84;61.14;21403.47;5051647;28;20212;-61
2022/08/26 08:25:23;;;;;;;20.67;15.13;;;25.50;99.90;;;-141.84;60.99;21429.91;5026043;28;20198;-60
2022/08/26 08:27:51;;;;;;;20.25;14.90;;;25.50;99.90;;;-141.84;60.01;21541.72;5031658;28;20252;-60
2022/08/26 08:30:23;;;;;;;18.83;15.65;;;25.70;99.90;;;-141.84;59.50;21574.25;5031432;28;20680;-61
2022/08/26 08:32:52;;;;;;;22.40;15.82;;;25.80;99.90;;;-141.84;59.23;21655.59;5031804;28;20264;-60
2022/08/26 08:35:25;;;;;;;21.95;14.93;;;26.00;99.90;;;-141.84;58.63;21741.00;5031938;28;20221;-61
2022/08/26 08:37:55;;;;;;;20.42;14.13;;;26.20;99.90;;;-141.84;57.38;21897.56;5031715;28;20232;-61
2022/08/26 08:40:26;;;;;;;25.00;15.60;;;26.50;99.90;;;-141.84;55.58;22025.66;5031731;28;20182;-61
2022/08/26 08:43:03;;;;;;;22.95;14.32;;;26.70;99.90;;;-141.84;54.91;22135.47;5031950;28;20238;-60
2022/08/26 08:45:38;;;;;;;21.70;14.35;;;27.00;99.90;;;-141.84;54.12;22227.00;5031454;28;20720;-61
2022/08/26 08:48:19;;;;;;;25.00;16.65;;;27.20;99.90;;;-141.84;54.63;22206.66;5031627;28;20255;-61
2022/08/26 08:51:02;;;;;;;20.60;15.60;;;27.20;99.90;;;-141.84;54.53;22153.78;5031313;28;20661;-60
2022/08/26 08:53:36;;;;;;;20.05;14.52;;;27.20;99.90;;;-141.84;55.04;22129.38;5036877;28;20240;-60
2022/08/26 08:56:22;;;;;;;25.25;15.55;;;27.10;99.90;;;-141.84;55.00;22078.53;5050911;28;20773;-62
2022/08/26 08:59:12;;;;;;;27.10;15.63;;;27.10;99.90;;;-141.84;55.54;22084.66;5051535;28;20253;-61
2022/08/26 09:02:02;;;;;;;24.60;14.77;;;26.90;99.90;;;-141.84;56.20;22025.66;5050960;28;20228;-62
2022/08/26 09:05:02;;;;;;;23.30;16.30;;;26.90;99.90;;;-141.84;55.77;22056.19;5051361;28;20708;-62
2022/08/26 09:07:37;;;;;;;22.85;15.70;;;26.80;99.90;;;-141.84;55.46;22082.63;5051091;28;20645;-61
2022/08/26 09:10:33;;;;;;;22.10;15.55;;;26.90;99.90;;;-141.84;56.19;22033.81;5051331;28;20215;-60
2022/08/26 09:13:08;;;;;;;20.77;14.70;;;26.80;99.90;;;-141.84;56.13;22054.13;5051498;28;20255;-61
2022/08/26 09:15:55;;;;;;;20.45;14.45;;;26.80;99.90;;;-141.84;55.38;22060.25;5050836;28;20659;-63
2022/08/26 09:18:44;;;;;;;22.90;14.10;;;26.80;99.90;;;-141.84;55.42;22058.22;5050875;28;20225;-62
2022/08/26 09:21:17;;;;;;;21.70;14.60;;;26.70;99.90;;;-141.84;55.02;22084.66;5050810;28;20604;-60
2022/08/26 09:23:46;;;;;;;22.33;14.68;;;26.80;99.90;;;-141.84;54.83;22121.25;5050686;28;20235;-61
2022/08/26 09:26:20;;;;;;;19.23;13.82;;;26.90;99.90;;;-141.84;54.95;22129.38;5050665;28;20229;-61
2022/08/26 09:29:00;;;;;;;19.52;14.05;;;26.90;99.90;;;-141.84;54.54;22190.38;5050827;28;20304;-60
2022/08/26 09:31:32;;;;;;;19.10;14.50;;;27.00;99.90;;;-141.84;55.06;22155.81;5050977;28;20701;-61
2022/08/26 09:34:14;;;;;;;19.70;13.18;;;27.00;99.90;;;-141.84;54.13;22210.72;5051105;28;20679;-62
2022/08/26 09:36:49;;;;;;;17.80;12.43;;;27.00;99.90;;;-141.84;53.14;22243.25;5051110;28;20275;-61
2022/08/26 09:39:33;;;;;;;16.95;12.80;;;27.20;99.90;;;-141.84;53.11;22285.97;5055024;28;20264;-62
2022/08/26 09:42:10;;;;;;;19.02;12.35;;;27.30;99.90;;;-141.84;53.46;22285.97;5054650;28;20742;-63
2022/08/26 09:44:58;;;;;;;16.30;12.63;;;27.40;99.90;;;-141.84;53.09;22310.38;5055072;28;20664;-62
2022/08/26 09:47:31;;;;;;;19.85;13.38;;;27.40;99.90;;;-141.84;53.32;22300.22;5054714;28;20224;-61
2022/08/26 09:50:05;;;;;;;19.33;13.95;;;27.40;99.90;;;-141.84;53.32;22316.47;5055013;28;20606;-62
2022/08/26 09:52:37;;;;;;;20.27;12.18;;;27.30;99.90;;;-141.84;53.65;22310.38;5054755;28;20209;-61
2022/08/26 09:55:19;;;;;;;21.27;13.50;;;27.40;99.90;;;-141.84;53.24;22361.22;5055111;28;20201;-63
2022/08/26 09:57:51;;;;;;;22.25;12.75;;;27.50;99.90;;;-141.84;53.22;22391.72;5054539;28;20311;-62
2022/08/26 10:00:32;;;;;;;23.00;13.43;;;27.70;99.90;;;-141.84;52.80;22395.78;5054598;28;20263;-62
2022/08/26 10:03:03;;;;;;;19.08;11.45;;;27.80;99.90;;;-141.84;51.93;22452.72;5054495;28;20316;-64
2022/08/26 10:05:47;;;;;;;20.63;12.52;;;27.90;99.90;;;-141.84;52.13;22460.88;5054470;28;20240;-61
2022/08/26 10:08:23;;;;;;;21.90;12.75;;;27.90;99.90;;;-141.84;51.86;22544.25;5054470;28;20256;-62
2022/08/26 10:10:55;;;;;;;19.50;13.05;;;28.10;99.90;;;-141.84;51.41;22570.69;5054407;28;20231;-61
2022/08/26 10:13:31;;;;;;;17.75;12.98;;;28.10;99.90;;;-141.84;51.48;22593.06;5054803;28;20189;-62
2022/08/26 10:16:14;;;;;;;23.45;13.93;;;28.30;99.90;;;-141.84;51.07;22660.19;5054333;28;20201;-61